Time;durP1;ratioP1;P1;durP2;ratioP2;P2;SDS_P1;SDS_P2;PMS_P1;PMS_P2;Temp;Humidity;BMP_temperature;BMP_pressure;BME280_temperature;BME280_humidity;BME280_pressure;Samples;Min_cycle;Max_cycle;Signal;HPM_P1;HPM_P2
2022/01/20 00:00:21;;;;;;;28.35;3.63;;;3.90;99.90;;;;;;5049915;28;20102;-57
2022/01/20 00:02:56;;;;;;;27.00;3.13;;;3.90;99.90;;;;;;5049714;28;20041;-58
2022/01/20 00:27:07;;;;;;;11.82;3.05;;;4.20;99.90;;;;;;5049704;28;20041;-56
2022/01/20 00:29:48;;;;;;;14.85;2.10;;;4.20;99.90;;;;;;5049329;28;20087;-58
2022/01/20 00:32:14;;;;;;;15.15;1.20;;;4.20;99.90;;;;;;5048218;28;20060;-59
2022/01/20 00:37:38;;;;;;;12.27;1.83;;;4.20;99.90;;;;;;5047781;28;19927;-59
2022/01/20 00:40:05;;;;;;;16.80;1.53;;;4.10;99.90;;;;;;5049330;28;20131;-58
2022/01/20 00:42:30;;;;;;;10.13;1.45;;;4.20;99.90;;;;;;5049311;28;20469;-57
2022/01/20 00:44:56;;;;;;;18.70;2.10;;;4.10;99.90;;;;;;5048652;28;20128;-58
2022/01/20 00:47:22;;;;;;;13.83;1.20;;;4.20;99.90;;;;;;5049103;28;20036;-58
2022/01/20 00:49:47;;;;;;;11.43;2.28;;;4.20;99.90;;;;;;5047756;28;20036;-59
2022/01/20 00:52:13;;;;;;;15.27;1.90;;;4.20;99.90;;;;;;5064238;28;20045;-57
2022/01/20 00:54:39;;;;;;;8.85;1.25;;;4.20;99.90;;;;;;5047391;28;20102;-57
2022/01/20 00:57:05;;;;;;;13.60;1.77;;;4.20;99.90;;;;;;5048999;28;20068;-57
2022/01/20 00:59:31;;;;;;;12.48;1.52;;;4.20;99.90;;;;;;5038840;28;20045;-59
2022/01/20 01:01:59;;;;;;;15.07;1.73;;;4.30;99.90;;;;;;5028881;28;20509;-57
2022/01/20 01:04:27;;;;;;;17.05;2.28;;;4.30;99.90;;;;;;5029325;28;20080;-59
2022/01/20 01:09:19;;;;;;;19.75;2.65;;;4.30;99.90;;;;;;5028805;28;20612;-58
2022/01/20 01:11:46;;;;;;;9.27;1.13;;;4.20;99.90;;;;;;5029243;28;20037;-57
2022/01/20 01:14:14;;;;;;;16.70;1.13;;;4.20;99.90;;;;;;5028579;28;20286;-58
2022/01/20 01:20:04;;;;;;;16.73;1.23;;;4.20;99.90;;;;;;5028544;28;20172;-56
2022/01/20 01:24:39;;;;;;;10.77;1.75;;;4.00;99.90;;;;;;5028636;28;20570;-58
2022/01/20 01:27:05;;;;;;;13.18;1.35;;;3.90;99.90;;;;;;5038074;28;20044;-59
2022/01/20 01:32:11;;;;;;;13.25;1.95;;;3.80;99.90;;;;;;5052774;28;20049;-58
2022/01/20 01:34:40;;;;;;;12.10;1.77;;;3.70;99.90;;;;;;5032686;28;20064;-59
2022/01/20 01:37:14;;;;;;;14.45;1.50;;;3.70;99.90;;;;;;5047772;28;20063;-59
2022/01/20 01:39:40;;;;;;;13.50;1.00;;;3.60;99.90;;;;;;5048296;28;20033;-58
2022/01/20 01:42:08;;;;;;;14.13;1.47;;;3.70;99.90;;;;;;5048389;28;20033;-59
2022/01/20 01:44:33;;;;;;;15.82;1.90;;;3.60;99.90;;;;;;5032765;28;20040;-59
2022/01/20 01:46:59;;;;;;;19.57;2.83;;;3.60;99.90;;;;;;5048049;28;20041;-58
2022/01/20 01:49:25;;;;;;;16.03;1.57;;;3.60;99.90;;;;;;5047629;28;20501;-59
2022/01/20 01:51:51;;;;;;;18.40;2.88;;;3.70;99.90;;;;;;5048219;28;20486;-58
2022/01/20 01:54:17;;;;;;;23.33;1.85;;;3.70;99.90;;;;;;5048408;28;20298;-58
2022/01/20 01:56:46;;;;;;;12.05;1.77;;;3.80;99.90;;;;;;5046440;28;20132;-59
2022/01/20 01:59:11;;;;;;;12.07;0.77;;;3.80;99.90;;;;;;5048054;28;20041;-59
2022/01/20 02:01:40;;;;;;;15.33;1.20;;;3.90;99.90;;;;;;5050809;28;20040;-59
2022/01/20 02:04:14;;;;;;;15.20;1.10;;;3.90;99.90;;;;;;5052048;28;20044;-58
2022/01/20 02:07:05;;;;;;;17.15;1.00;;;3.90;99.90;;;;;;5043946;28;20045;-58
2022/01/20 02:18:00;;;;;;;6.78;0.88;;;4.10;99.90;;;;;;5031927;28;20049;-58
2022/01/20 02:20:26;;;;;;;12.18;0.93;;;4.20;99.90;;;;;;5051213;28;20041;-59
2022/01/20 02:22:52;;;;;;;11.82;1.27;;;4.20;99.90;;;;;;5051327;28;20041;-58
2022/01/20 02:25:26;;;;;;;9.63;1.70;;;4.20;99.90;;;;;;5051522;28;20043;-58
2022/01/20 02:27:53;;;;;;;10.52;1.00;;;4.20;99.90;;;;;;5051678;28;20102;-58
2022/01/20 02:30:20;;;;;;;9.45;0.88;;;4.20;99.90;;;;;;5051779;28;20037;-58
2022/01/20 02:32:53;;;;;;;9.48;0.80;;;4.20;99.90;;;;;;5051696;28;20047;-58
2022/01/20 02:35:20;;;;;;;10.60;1.40;;;4.10;99.90;;;;;;5050834;28;20103;-58
2022/01/20 02:37:48;;;;;;;12.50;1.23;;;4.10;99.90;;;;;;5050402;28;20043;-59
2022/01/20 02:45:41;;;;;;;7.57;0.95;;;4.00;99.90;;;;;;5050764;28;20040;-56
2022/01/20 02:48:07;;;;;;;10.17;0.87;;;4.00;99.90;;;;;;5049635;28;20037;-59
2022/01/20 02:50:32;;;;;;;8.43;0.57;;;4.00;99.90;;;;;;5050655;28;20284;-58
2022/01/20 02:52:58;;;;;;;11.47;0.90;;;4.00;99.90;;;;;;5050740;28;20065;-59
2022/01/20 02:55:24;;;;;;;14.13;0.70;;;4.00;99.90;;;;;;5050621;28;20029;-57
2022/01/20 02:57:49;;;;;;;6.77;0.53;;;4.00;99.90;;;;;;5051032;28;20036;-58
2022/01/20 03:00:15;;;;;;;10.53;0.60;;;4.00;99.90;;;;;;5050421;28;20287;-57
2022/01/20 03:02:42;;;;;;;12.63;0.80;;;4.00;99.90;;;;;;5050871;28;20037;-58
2022/01/20 03:05:10;;;;;;;3.97;0.40;;;4.10;99.90;;;;;;5050725;28;20302;-59
2022/01/20 03:07:36;;;;;;;10.18;0.50;;;4.10;99.90;;;;;;5050721;28;20116;-58
2022/01/20 03:10:04;;;;;;;4.13;0.60;;;4.10;99.90;;;;;;5051039;28;20029;-58
2022/01/20 03:12:29;;;;;;;5.88;0.65;;;4.10;99.90;;;;;;5050089;28;20029;-58
2022/01/20 03:14:55;;;;;;;4.97;0.53;;;4.10;99.90;;;;;;5050316;28;20040;-59
2022/01/20 03:17:21;;;;;;;8.27;0.30;;;4.10;99.90;;;;;;5050481;28;20112;-59
2022/01/20 03:19:47;;;;;;;10.73;1.00;;;4.10;99.90;;;;;;5050874;28;20458;-59
2022/01/20 03:22:12;;;;;;;13.00;2.00;;;4.10;99.90;;;;;;5050024;28;20033;-56
2022/01/20 03:24:38;;;;;;;7.20;1.17;;;4.00;99.90;;;;;;5050462;28;20036;-58
2022/01/20 03:27:03;;;;;;;14.70;1.17;;;4.00;99.90;;;;;;5050401;28;20095;-56
2022/01/20 03:29:29;;;;;;;7.20;1.00;;;3.90;99.90;;;;;;5049908;28;20043;-59
2022/01/20 03:31:55;;;;;;;6.83;0.80;;;3.90;99.90;;;;;;5050717;28;20091;-59
2022/01/20 03:34:21;;;;;;;11.33;1.20;;;3.90;99.90;;;;;;5049903;28;20107;-57
2022/01/20 03:36:48;;;;;;;4.45;0.85;;;3.80;99.90;;;;;;5050231;28;20406;-57
2022/01/20 03:39:13;;;;;;;14.73;1.02;;;3.80;99.90;;;;;;5048541;28;20051;-59
2022/01/20 03:41:39;;;;;;;14.73;2.73;;;3.80;99.90;;;;;;5049203;28;20416;-57
2022/01/20 03:44:05;;;;;;;8.23;0.93;;;3.80;99.90;;;;;;5048610;28;20037;-56
2022/01/20 03:46:31;;;;;;;22.13;2.90;;;3.80;99.90;;;;;;5049980;28;20029;-58
2022/01/20 03:49:07;;;;;;;10.85;1.35;;;3.80;99.90;;;;;;5048492;28;20043;-57
2022/01/20 03:51:33;;;;;;;15.85;2.28;;;3.80;99.90;;;;;;5065689;28;20033;-59
2022/01/20 03:53:58;;;;;;;14.57;1.23;;;3.80;99.90;;;;;;5048333;28;20136;-56
2022/01/20 03:56:24;;;;;;;20.83;1.73;;;3.80;99.90;;;;;;5048818;28;20049;-57
2022/01/20 03:58:50;;;;;;;25.33;2.10;;;3.80;99.90;;;;;;5049862;28;20041;-58
2022/01/20 04:01:17;;;;;;;22.30;2.67;;;3.80;99.90;;;;;;5049634;28;20414;-57
2022/01/20 04:03:44;;;;;;;16.63;1.30;;;3.80;99.90;;;;;;5050200;28;20456;-57
2022/01/20 04:06:10;;;;;;;22.92;3.10;;;3.80;99.90;;;;;;5045265;28;20086;-57
2022/01/20 04:08:39;;;;;;;19.80;3.00;;;3.80;99.90;;;;;;5028618;28;20502;-59
2022/01/20 04:11:29;;;;;;;26.45;2.55;;;3.80;99.90;;;;;;5029591;28;20406;-57
2022/01/20 04:13:56;;;;;;;15.38;3.22;;;3.80;99.90;;;;;;5029747;28;20107;-58
2022/01/20 04:16:49;;;;;;;18.85;2.28;;;3.80;99.90;;;;;;5027978;28;20056;-58
2022/01/20 04:19:14;;;;;;;23.58;2.58;;;3.80;99.90;;;;;;5041547;28;20093;-59
2022/01/20 04:21:41;;;;;;;26.57;2.60;;;3.70;99.90;;;;;;5049135;28;20044;-59
2022/01/20 04:24:09;;;;;;;19.17;2.00;;;3.70;99.90;;;;;;5048724;28;20052;-58
2022/01/20 04:26:35;;;;;;;22.42;2.00;;;3.70;99.90;;;;;;5049284;28;20045;-59
2022/01/20 04:29:02;;;;;;;;;;;3.70;99.90;;;;;;5049921;28;20063;-58
2022/01/20 04:31:30;;;;;;;14.88;2.45;;;3.70;99.90;;;;;;5049655;28;19916;-56
2022/01/20 04:33:56;;;;;;;13.93;2.45;;;3.70;99.90;;;;;;5049241;28;20032;-59
2022/01/20 04:36:23;;;;;;;22.92;2.80;;;3.60;99.90;;;;;;5047402;28;20048;-59
2022/01/20 04:38:49;;;;;;;;;;;3.60;99.90;;;;;;5048460;28;20440;-59
2022/01/20 04:41:14;;;;;;;26.88;2.95;;;3.60;99.90;;;;;;5049512;28;19970;-59
2022/01/20 04:43:40;;;;;;;17.20;3.13;;;3.60;99.90;;;;;;5048873;28;20037;-59
2022/01/20 04:46:14;;;;;;;24.67;3.20;;;3.60;99.90;;;;;;5048665;28;20036;-57
2022/01/20 04:48:49;;;;;;;12.60;2.15;;;3.60;99.90;;;;;;5048364;28;20086;-59
2022/01/20 04:59:29;;;;;;;14.25;2.40;;;3.60;99.90;;;;;;5048737;28;20045;-59
2022/01/20 05:01:55;;;;;;;25.15;2.95;;;3.60;99.90;;;;;;5049069;28;20051;-59
2022/01/20 05:04:23;;;;;;;10.33;1.77;;;3.60;99.90;;;;;;5048934;28;20044;-58
2022/01/20 05:06:50;;;;;;;23.67;2.33;;;3.50;99.90;;;;;;5048840;28;20045;-58
2022/01/20 05:09:20;;;;;;;13.52;2.30;;;3.50;99.90;;;;;;5048372;28;20068;-59
2022/01/20 05:11:50;;;;;;;11.63;2.05;;;3.50;99.90;;;;;;5048720;28;20049;-59
2022/01/20 05:14:16;;;;;;;12.63;1.67;;;3.40;99.90;;;;;;5048665;28;20052;-59
2022/01/20 05:16:42;;;;;;;19.17;2.00;;;3.40;99.90;;;;;;5046955;28;20029;-59
2022/01/20 05:19:07;;;;;;;14.53;1.50;;;3.30;99.90;;;;;;5048220;28;20060;-59
2022/01/20 05:21:33;;;;;;;16.40;2.33;;;3.30;99.90;;;;;;5048724;28;20087;-59
2022/01/20 05:23:58;;;;;;;21.07;2.77;;;3.20;99.90;;;;;;5048206;28;20072;-59
2022/01/20 05:26:24;;;;;;;10.93;1.63;;;3.20;99.90;;;;;;5048109;28;20056;-57
2022/01/20 05:28:49;;;;;;;14.80;1.53;;;3.20;99.90;;;;;;5048381;28;20041;-56
2022/01/20 05:31:15;;;;;;;10.73;1.57;;;3.20;99.90;;;;;;5046707;28;20037;-58
2022/01/20 05:33:41;;;;;;;13.53;1.83;;;3.10;99.90;;;;;;5048697;28;20041;-58
2022/01/20 05:36:06;;;;;;;9.43;1.83;;;3.10;99.90;;;;;;5050139;28;20064;-59
2022/01/20 05:38:32;;;;;;;29.43;3.43;;;3.00;99.90;;;;;;5052232;28;20037;-56
2022/01/20 05:40:58;;;;;;;11.50;2.03;;;3.00;99.90;;;;;;5051775;28;20049;-56
2022/01/20 05:43:23;;;;;;;23.40;2.60;;;2.90;99.90;;;;;;5052890;28;20041;-58
2022/01/20 05:45:49;;;;;;;13.77;1.97;;;2.90;99.90;;;;;;5052252;28;20037;-57
2022/01/20 05:48:21;;;;;;;20.70;2.53;;;2.90;99.90;;;;;;5051847;28;20040;-58
2022/01/20 05:50:47;;;;;;;17.58;1.83;;;3.00;99.90;;;;;;5052693;28;20041;-57
2022/01/20 05:53:12;;;;;;;24.13;2.55;;;3.00;99.90;;;;;;5033737;28;20574;-56
2022/01/20 05:55:38;;;;;;;19.67;2.23;;;3.00;99.90;;;;;;5051884;28;20043;-58
2022/01/20 05:58:06;;;;;;;19.95;3.85;;;3.00;99.90;;;;;;5052191;28;20421;-59
2022/01/20 06:00:34;;;;;;;13.75;2.05;;;3.00;99.90;;;;;;5051609;28;20482;-57
2022/01/20 06:05:43;;;;;;;13.88;1.70;;;3.10;99.90;;;;;;5047812;28;20041;-59
2022/01/20 06:08:09;;;;;;;13.87;1.80;;;3.10;99.90;;;;;;5032141;28;20503;-59
2022/01/20 06:10:36;;;;;;;7.82;1.65;;;3.10;99.90;;;;;;5032086;28;20246;-57
2022/01/20 06:13:03;;;;;;;12.55;2.33;;;3.10;99.90;;;;;;5032042;28;20039;-59
2022/01/20 06:15:29;;;;;;;15.77;2.20;;;3.10;99.90;;;;;;5031939;28;20132;-58
2022/01/20 06:17:55;;;;;;;13.73;1.58;;;3.10;99.90;;;;;;5034895;28;20041;-59
2022/01/20 06:20:21;;;;;;;4.18;1.35;;;3.00;99.90;;;;;;5051526;28;20051;-58
2022/01/20 06:22:46;;;;;;;9.90;1.17;;;3.00;99.90;;;;;;5052043;28;20040;-58
2022/01/20 06:25:13;;;;;;;13.00;0.80;;;3.00;99.90;;;;;;5051710;28;20337;-56
2022/01/20 06:27:38;;;;;;;10.05;1.05;;;2.90;99.90;;;;;;5051756;28;20049;-58
2022/01/20 06:30:05;;;;;;;9.17;1.00;;;2.90;99.90;;;;;;5051530;28;20032;-59
2022/01/20 06:32:32;;;;;;;14.73;1.42;;;2.90;99.90;;;;;;5051978;28;20033;-59
2022/01/20 06:34:57;;;;;;;13.68;1.95;;;2.80;99.90;;;;;;5050548;28;20113;-59
2022/01/20 06:37:23;;;;;;;11.83;1.40;;;2.80;99.90;;;;;;5051886;28;20514;-58
2022/01/20 06:39:48;;;;;;;10.47;1.30;;;2.80;99.90;;;;;;5051219;28;20337;-57
2022/01/20 06:42:14;;;;;;;11.57;1.50;;;2.70;99.90;;;;;;5051566;28;20513;-59
2022/01/20 06:44:40;;;;;;;13.67;2.43;;;2.70;99.90;;;;;;5051366;28;20501;-57
2022/01/20 06:47:06;;;;;;;6.57;1.77;;;2.70;99.90;;;;;;5050625;28;20033;-59
2022/01/20 06:49:32;;;;;;;10.32;0.90;;;2.60;99.90;;;;;;5050194;28;20131;-57
2022/01/20 06:51:58;;;;;;;10.60;1.93;;;2.60;99.90;;;;;;5051034;28;20053;-59
2022/01/20 06:54:24;;;;;;;;;;;2.70;99.90;;;;;;5050123;28;20055;-58
2022/01/20 06:56:49;;;;;;;10.38;1.38;;;2.60;99.90;;;;;;5050488;28;19917;-57
2022/01/20 06:59:16;;;;;;;7.77;1.40;;;2.60;99.90;;;;;;5050847;28;20076;-59
2022/01/20 07:01:44;;;;;;;7.78;1.48;;;2.60;99.90;;;;;;5048779;28;20419;-57
2022/01/20 07:04:10;;;;;;;9.20;1.42;;;2.70;99.90;;;;;;5050615;28;20052;-58
2022/01/20 07:06:36;;;;;;;13.20;1.27;;;2.60;99.90;;;;;;5050536;28;20041;-59
2022/01/20 07:09:02;;;;;;;;;;;2.60;99.90;;;;;;5051312;28;20092;-59
2022/01/20 07:11:30;;;;;;;9.13;1.33;;;2.60;99.90;;;;;;5050766;28;19921;-59
2022/01/20 07:13:56;;;;;;;7.97;1.45;;;2.60;99.90;;;;;;5049306;28;20512;-58
2022/01/20 07:16:21;;;;;;;16.37;2.07;;;2.50;99.90;;;;;;5050157;28;20033;-58
2022/01/20 07:18:47;;;;;;;10.33;2.20;;;2.50;99.90;;;;;;5050321;28;20120;-58
2022/01/20 07:21:12;;;;;;;6.70;1.00;;;2.40;99.90;;;;;;5049304;28;20128;-57
2022/01/20 07:23:38;;;;;;;24.80;2.20;;;2.40;99.90;;;;;;5050491;28;20045;-59
2022/01/20 07:26:04;;;;;;;10.40;1.17;;;2.30;99.90;;;;;;5050072;28;20052;-58
2022/01/20 07:28:29;;;;;;;13.32;1.25;;;2.30;99.90;;;;;;5048812;28;20098;-59
2022/01/20 07:30:55;;;;;;;13.83;2.40;;;2.20;99.90;;;;;;5049897;28;20402;-56
2022/01/20 07:33:20;;;;;;;15.03;2.33;;;2.20;99.90;;;;;;5048559;28;20078;-59
2022/01/20 07:35:46;;;;;;;11.03;1.47;;;2.20;99.90;;;;;;5050200;28;20037;-59
2022/01/20 07:38:12;;;;;;;13.27;2.20;;;2.20;99.90;;;;;;5048964;28;20047;-57
2022/01/20 07:40:37;;;;;;;12.23;1.83;;;2.20;99.90;;;;;;5049023;28;20041;-59
2022/01/20 07:43:03;;;;;;;13.20;2.83;;;2.20;99.90;;;;;;5049499;28;20044;-59
2022/01/20 07:45:29;;;;;;;15.10;2.47;;;2.20;99.90;;;;;;5048244;28;20036;-58
2022/01/20 07:47:55;;;;;;;10.93;2.33;;;2.20;99.90;;;;;;5048912;28;20045;-59
2022/01/20 07:50:20;;;;;;;21.93;2.07;;;2.30;99.90;;;;;;5048754;28;20033;-59
2022/01/20 07:52:47;;;;;;;14.27;2.57;;;2.30;99.90;;;;;;5048864;28;20040;-56
2022/01/20 07:55:13;;;;;;;;;;;2.30;99.90;;;;;;5049255;28;20426;-58
2022/01/20 07:57:39;;;;;;;14.93;2.00;;;2.30;99.90;;;;;;5049429;28;19920;-58
2022/01/20 08:00:06;;;;;;;18.80;2.72;;;2.30;99.90;;;;;;5049768;28;20021;-58
2022/01/20 08:02:32;;;;;;;12.57;2.05;;;2.40;99.90;;;;;;5049692;28;20044;-58
2022/01/20 08:04:58;;;;;;;18.60;2.47;;;2.50;99.90;;;;;;5050234;28;20048;-56
2022/01/20 08:07:23;;;;;;;13.57;2.45;;;2.50;99.90;;;;;;5050016;28;20033;-60
2022/01/20 08:09:54;;;;;;;13.30;2.20;;;2.60;99.90;;;;;;5049809;28;20485;-59
2022/01/20 08:12:19;;;;;;;13.05;2.10;;;2.60;99.90;;;;;;5049669;28;20064;-61
2022/01/20 08:14:45;;;;;;;13.17;2.00;;;2.60;99.90;;;;;;5049459;28;20116;-60
2022/01/20 08:17:11;;;;;;;16.93;2.50;;;2.60;99.90;;;;;;5055472;28;20275;-57
2022/01/20 08:19:36;;;;;;;6.47;1.67;;;2.60;99.90;;;;;;5054472;28;20040;-57
2022/01/20 08:22:03;;;;;;;22.33;1.77;;;2.60;99.90;;;;;;5049557;28;20048;-57
2022/01/20 08:24:28;;;;;;;16.55;1.50;;;2.60;99.90;;;;;;5065046;28;20068;-60
2022/01/20 08:26:54;;;;;;;16.57;1.23;;;2.60;99.90;;;;;;5049107;28;20536;-57
2022/01/20 08:29:19;;;;;;;14.30;1.60;;;2.60;99.90;;;;;;5049137;28;20045;-59
2022/01/20 08:31:45;;;;;;;11.07;1.87;;;2.60;99.90;;;;;;5049077;28;20043;-59
2022/01/20 08:34:10;;;;;;;13.00;3.13;;;3.00;99.90;;;;;;5049038;28;20584;-60
2022/01/20 08:36:36;;;;;;;14.30;3.03;;;3.40;99.90;;;;;;5048404;28;20033;-56
2022/01/20 08:39:03;;;;;;;13.70;1.30;;;3.60;99.90;;;;;;5049171;28;20067;-57
2022/01/20 08:41:28;;;;;;;16.75;1.80;;;3.70;99.90;;;;;;5049709;28;20045;-55
2022/01/20 08:43:54;;;;;;;9.17;1.43;;;3.70;99.90;;;;;;5049464;28;20547;-58
2022/01/20 08:46:21;;;;;;;19.10;2.47;;;3.80;99.90;;;;;;5048379;28;20491;-58
2022/01/20 08:48:47;;;;;;;10.02;2.38;;;4.20;99.90;;;;;;5048352;28;20033;-57
2022/01/20 08:51:13;;;;;;;15.88;2.13;;;4.60;99.90;;;;;;5048978;28;20491;-57
2022/01/20 08:53:38;;;;;;;12.40;2.00;;;4.70;99.90;;;;;;5048556;28;20044;-56
2022/01/20 08:56:04;;;;;;;14.93;2.07;;;4.70;99.90;;;;;;5028968;28;20534;-57
2022/01/20 08:58:30;;;;;;;16.50;1.40;;;4.60;99.90;;;;;;5029813;28;20128;-57
2022/01/20 09:00:55;;;;;;;12.63;1.53;;;4.50;99.90;;;;;;5049143;28;20044;-57
2022/01/20 09:03:22;;;;;;;19.90;2.40;;;4.50;99.90;;;;;;5049201;28;20091;-57
2022/01/20 09:05:48;;;;;;;9.13;1.70;;;5.00;99.90;;;;;;5046394;28;20123;-57
2022/01/20 09:08:14;;;;;;;10.10;1.65;;;5.70;99.90;;;;;;5049059;28;20112;-56
2022/01/20 09:10:42;;;;;;;12.20;1.88;;;6.30;99.90;;;;;;5047703;28;20108;-57
2022/01/20 09:15:55;;;;;;;8.95;1.58;;;7.60;99.90;;;;;;5047678;28;20440;-56
2022/01/20 09:18:22;;;;;;;17.08;2.78;;;8.60;99.90;;;;;;5048850;28;20056;-58
2022/01/20 09:20:48;;;;;;;14.70;1.65;;;9.30;99.90;;;;;;5048286;28;20432;-58
2022/01/20 09:23:14;;;;;;;13.73;1.70;;;9.60;99.90;;;;;;5047540;28;20066;-57
2022/01/20 09:25:41;;;;;;;8.15;1.95;;;10.00;99.90;;;;;;5047273;28;20512;-58
2022/01/20 09:28:07;;;;;;;14.93;2.13;;;10.80;99.90;;;;;;5048019;28;20175;-58
2022/01/20 09:30:35;;;;;;;13.32;3.13;;;11.70;99.90;;;;;;5046937;28;20044;-57
2022/01/20 09:35:38;;;;;;;10.82;1.63;;;11.80;92.90;;;;;;5046312;28;20426;-56
2022/01/20 09:38:04;;;;;;;20.65;2.05;;;11.00;90.80;;;;;;5047648;28;20029;-57
2022/01/20 09:40:31;;;;;;;;;;;10.10;92.00;;;;;;5048675;28;20033;-58
2022/01/20 09:42:57;;;;;;;10.30;1.05;;;9.20;91.60;;;;;;5046860;28;19921;-56
2022/01/20 09:45:23;;;;;;;10.13;1.27;;;8.40;96.00;;;;;;5047451;28;20037;-56
2022/01/20 09:47:49;;;;;;;12.85;1.92;;;7.70;98.70;;;;;;5047673;28;20091;-56
2022/01/20 09:50:19;;;;;;;7.80;1.83;;;7.30;99.90;;;;;;5046240;28;20029;-57
2022/01/20 09:52:46;;;;;;;15.60;2.28;;;6.90;99.90;;;;;;5047563;28;20290;-57
2022/01/20 09:55:12;;;;;;;11.82;1.38;;;6.90;99.90;;;;;;5046426;28;20044;-56
2022/01/20 09:57:38;;;;;;;11.90;1.15;;;7.00;99.90;;;;;;5047652;28;20201;-57
2022/01/20 10:00:10;;;;;;;12.98;1.52;;;7.70;99.90;;;;;;5048053;28;20113;-58
2022/01/20 10:02:36;;;;;;;10.80;1.02;;;8.70;99.90;;;;;;5047582;28;20033;-58
2022/01/20 10:05:02;;;;;;;8.50;0.85;;;9.00;99.90;;;;;;5046437;28;20068;-58
2022/01/20 10:07:34;;;;;;;;;;;8.80;98.60;;;;;;5047923;28;20052;-57
2022/01/20 10:10:01;;;;;;;12.15;1.52;;;8.40;98.40;;;;;;5046732;28;20454;-57
2022/01/20 10:12:30;;;;;;;11.43;1.92;;;7.90;99.40;;;;;;5047853;28;20032;-57
2022/01/20 10:14:57;;;;;;;13.15;0.80;;;7.50;99.60;;;;;;5047452;28;20055;-56
2022/01/20 10:17:31;;;;;;;9.15;0.90;;;7.00;99.20;;;;;;5047760;28;20506;-58
2022/01/20 10:20:01;;;;;;;8.32;0.90;;;6.50;99.90;;;;;;5047455;28;20108;-57
2022/01/20 10:22:28;;;;;;;6.30;0.70;;;6.00;99.90;;;;;;5050390;28;20072;-57
2022/01/20 10:25:12;;;;;;;6.32;0.57;;;5.60;99.90;;;;;;5051197;28;20041;-55
2022/01/20 10:27:50;;;;;;;8.27;0.70;;;5.40;99.90;;;;;;5051066;28;20456;-56
2022/01/20 10:30:16;;;;;;;11.63;1.80;;;5.20;99.90;;;;;;5050734;28;20037;-58
2022/01/20 10:32:44;;;;;;;8.60;1.20;;;5.00;99.90;;;;;;5051969;28;20041;-56
2022/01/20 10:35:11;;;;;;;9.52;0.80;;;4.80;99.90;;;;;;5051145;28;20037;-57
2022/01/20 10:37:39;;;;;;;11.18;1.98;;;4.90;99.90;;;;;;5051294;28;20037;-57
2022/01/20 10:40:14;;;;;;;7.18;0.90;;;5.10;99.90;;;;;;5049569;28;20041;-57
2022/01/20 10:42:42;;;;;;;6.07;0.70;;;5.40;99.90;;;;;;5050636;28;20244;-58
2022/01/20 10:45:18;;;;;;;8.27;0.70;;;5.50;99.90;;;;;;5048442;28;20047;-57
2022/01/20 10:47:49;;;;;;;8.10;0.90;;;5.60;99.90;;;;;;5050965;28;20460;-58
2022/01/20 10:50:22;;;;;;;12.00;0.95;;;5.50;99.90;;;;;;5051879;28;20095;-58
2022/01/20 10:52:49;;;;;;;3.88;0.68;;;5.20;99.90;;;;;;5041234;28;20041;-57
2022/01/20 10:55:30;;;;;;;10.73;2.15;;;5.00;99.90;;;;;;5031005;28;20077;-57
2022/01/20 10:58:07;;;;;;;10.68;1.00;;;4.90;99.90;;;;;;5031393;28;20096;-57
2022/01/20 11:00:45;;;;;;;10.10;1.20;;;4.80;99.90;;;;;;5030157;28;20043;-56
2022/01/20 11:03:11;;;;;;;14.45;0.93;;;4.70;99.90;;;;;;5031271;28;20090;-58
2022/01/20 11:05:41;;;;;;;9.53;1.17;;;4.50;99.90;;;;;;5045939;28;20079;-58
2022/01/20 11:08:07;;;;;;;7.32;0.57;;;4.50;99.90;;;;;;5050912;28;20045;-58
2022/01/20 11:10:34;;;;;;;7.72;1.95;;;4.40;99.90;;;;;;5051318;28;20059;-57
2022/01/20 11:13:00;;;;;;;6.65;0.88;;;4.40;99.90;;;;;;5051260;28;20530;-56
2022/01/20 11:15:28;;;;;;;7.57;0.90;;;4.40;99.90;;;;;;5050049;28;20355;-57
2022/01/20 11:17:56;;;;;;;11.65;0.68;;;4.40;99.90;;;;;;5050741;28;20037;-56
2022/01/20 11:20:26;;;;;;;7.15;0.50;;;4.70;99.90;;;;;;5050535;28;20395;-56
2022/01/20 11:22:54;;;;;;;9.50;1.02;;;5.00;99.90;;;;;;5050640;28;20082;-57
2022/01/20 11:25:23;;;;;;;5.85;0.55;;;5.20;99.90;;;;;;5050711;28;20049;-57
2022/01/20 11:28:00;;;;;;;9.43;0.75;;;5.70;99.90;;;;;;5047544;28;20111;-57
2022/01/20 11:30:26;;;;;;;10.70;0.80;;;6.10;99.90;;;;;;5056448;28;20033;-57
2022/01/20 11:33:04;;;;;;;11.57;1.35;;;6.80;99.90;;;;;;5056808;28;20067;-54
2022/01/20 11:35:45;;;;;;;6.28;0.60;;;7.60;99.90;;;;;;5049793;28;20033;-57
2022/01/20 11:38:14;;;;;;;3.85;0.57;;;8.40;99.90;;;;;;5048775;28;20452;-54
2022/01/20 11:40:54;;;;;;;5.68;0.77;;;9.20;99.90;;;;;;5050546;28;20373;-55
2022/01/20 11:43:34;;;;;;;13.32;1.17;;;10.00;99.90;;;;;;5049894;28;20045;-57
2022/01/20 11:46:15;;;;;;;8.38;1.38;;;10.60;98.70;;;;;;5047448;28;20151;-54
2022/01/20 11:48:56;;;;;;;11.13;1.80;;;11.20;96.40;;;;;;5049550;28;20051;-52
2022/01/20 11:51:23;;;;;;;6.45;1.45;;;11.80;91.50;;;;;;5049757;28;20040;-57
2022/01/20 11:53:59;;;;;;;10.30;2.08;;;12.20;87.60;;;;;;5045258;28;20062;-57
2022/01/20 11:56:40;;;;;;;3.63;0.90;;;12.60;85.80;;;;;;5066626;28;20044;-55
2022/01/20 11:59:08;;;;;;;9.27;1.40;;;12.90;84.40;;;;;;5060228;28;20600;-57
2022/01/20 12:01:52;;;;;;;8.30;1.13;;;12.90;80.80;;;;;;5054408;28;20555;-56
2022/01/20 12:04:39;;;;;;;6.22;1.00;;;12.50;81.20;;;;;;5052009;28;20072;-56
2022/01/20 12:07:06;;;;;;;8.68;1.33;;;12.00;81.50;;;;;;5053087;28;20040;-58
2022/01/20 12:09:35;;;;;;;8.85;1.33;;;11.50;85.40;;;;;;5066595;28;20036;-55
2022/01/20 12:12:02;;;;;;;8.35;1.13;;;11.20;85.90;;;;;;5066738;28;20048;-56
2022/01/20 12:14:38;;;;;;;8.88;1.35;;;10.90;88.30;;;;;;5067075;28;20036;-57
2022/01/20 12:17:16;;;;;;;16.38;1.55;;;10.50;90.40;;;;;;5056508;28;20037;-57
2022/01/20 12:19:47;;;;;;;41.10;29.15;;;10.00;90.80;;;;;;5059186;28;20493;-57
2022/01/20 12:22:13;;;;;;;10.15;1.40;;;9.50;90.90;;;;;;5063089;28;20045;-57
2022/01/20 12:24:50;;;;;;;5.77;1.30;;;9.10;92.00;;;;;;5064786;28;20036;-57
2022/01/20 12:27:17;;;;;;;13.02;1.25;;;8.80;91.80;;;;;;5058182;28;20048;-57
2022/01/20 12:29:43;;;;;;;11.35;1.83;;;8.50;93.50;;;;;;5056453;28;20194;-57
2022/01/20 12:32:10;;;;;;;;;;;8.20;94.70;;;;;;5059547;28;20036;-55
2022/01/20 12:34:36;;;;;;;8.15;0.77;;;7.80;96.90;;;;;;5066148;28;19999;-56
2022/01/20 12:37:02;;;;;;;6.70;1.23;;;8.40;99.90;;;;;;5063484;28;20123;-57
2022/01/20 12:39:33;;;;;;;12.55;2.90;;;9.80;99.90;;;;;;5067512;28;20123;-57
2022/01/20 12:42:08;;;;;;;9.20;0.90;;;11.40;98.20;;;;;;5062011;28;20044;-58
2022/01/20 12:45:00;;;;;;;6.60;1.15;;;12.90;92.60;;;;;;5066082;28;20064;-57
2022/01/20 12:47:28;;;;;;;10.88;2.63;;;14.40;79.10;;;;;;5063400;28;20325;-56
2022/01/20 12:49:58;;;;;;;13.27;1.05;;;15.70;76.00;;;;;;5065388;28;20041;-57
2022/01/20 12:52:24;;;;;;;6.80;0.75;;;16.60;70.70;;;;;;5067125;28;20036;-58
2022/01/20 12:54:51;;;;;;;10.40;2.47;;;17.20;67.00;;;;;;5067273;28;20051;-57
2022/01/20 12:57:18;;;;;;;11.82;2.65;;;17.40;59.10;;;;;;5067740;28;20045;-58
2022/01/20 12:59:45;;;;;;;10.68;0.93;;;17.40;62.40;;;;;;5067244;28;20107;-54
2022/01/20 13:02:24;;;;;;;6.35;0.70;;;17.30;60.50;;;;;;5067735;28;20467;-57
2022/01/20 13:05:05;;;;;;;11.23;1.50;;;17.30;61.30;;;;;;5066698;28;20044;-58
2022/01/20 13:07:34;;;;;;;9.68;1.33;;;16.60;57.30;;;;;;5060654;28;20401;-58
2022/01/20 13:10:08;;;;;;;13.10;1.35;;;15.80;59.60;;;;;;5064588;28;20051;-58
2022/01/20 13:12:38;;;;;;;12.75;2.30;;;14.80;60.60;;;;;;5063797;28;20059;-58
2022/01/20 13:15:18;;;;;;;16.58;2.05;;;13.60;61.30;;;;;;5064542;28;20048;-57
2022/01/20 13:17:46;;;;;;;13.88;3.53;;;12.70;61.80;;;;;;5066121;28;20507;-58
2022/01/20 13:20:23;;;;;;;12.52;1.27;;;11.90;65.60;;;;;;5067057;28;20045;-56
2022/01/20 13:23:08;;;;;;;15.23;1.92;;;12.00;66.50;;;;;;5047051;28;20032;-57
2022/01/20 13:25:39;;;;;;;13.35;2.10;;;11.70;67.50;;;;;;5055822;28;20146;-58
2022/01/20 13:28:07;;;;;;;9.73;1.85;;;11.30;68.80;;;;;;5066487;28;20133;-57
2022/01/20 13:30:39;;;;;;;13.07;3.15;;;10.90;70.00;;;;;;5061597;28;20036;-58
2022/01/20 13:33:14;;;;;;;10.23;0.95;;;10.90;73.70;;;;;;5065739;28;20479;-58
2022/01/20 13:35:42;;;;;;;14.48;1.52;;;10.80;72.80;;;;;;5066360;28;20501;-57
2022/01/20 13:38:08;;;;;;;10.25;1.42;;;10.50;73.20;;;;;;5067491;28;20041;-57
2022/01/20 13:40:45;;;;;;;8.20;1.52;;;10.00;74.20;;;;;;5058625;28;20141;-58
2022/01/20 13:45:45;;;;;;;6.13;1.85;;;9.00;75.10;;;;;;5053205;28;19920;-58
2022/01/20 13:48:13;;;;;;;10.52;2.25;;;8.50;76.40;;;;;;5060448;28;20523;-57
2022/01/20 13:50:44;;;;;;;15.75;1.45;;;8.10;80.60;;;;;;5048438;28;20044;-58
2022/01/20 13:53:15;;;;;;;6.15;0.98;;;7.70;84.90;;;;;;5047382;28;20044;-58
2022/01/20 13:55:43;;;;;;;4.68;1.13;;;7.60;91.30;;;;;;5048011;28;20041;-58
2022/01/20 13:58:21;;;;;;;9.43;0.80;;;8.30;95.10;;;;;;5051549;28;20106;-57
2022/01/20 14:00:46;;;;;;;13.95;1.27;;;9.60;94.90;;;;;;5037003;28;20124;-57
2022/01/20 14:03:12;;;;;;;7.40;0.90;;;11.10;85.60;;;;;;5050791;28;20613;-58